Airfield :
LOGIN :

Register | Disclaimer

   EN    FR    IT 

 










Legend :    VFR   Marginal VFR   IFR   Intensive IFR   Very Intensive IFR
Visi :
Ceiling :
>= 8 km
>= 3000ft
5 to 8 km
1000 to 3000 ft
1500m to 5 km
500 to 1000 ft
800 to 1500m
200 to 500 ft
< 800m
< 200 ft
Symbols :   Thunderstorms  Fog  Heavy snow  Heavy precipitations  Wind > 20 kt
SIGMETs :     Misc.  Thunderstorms  Icing  Turbulence  Mountain Waves  Volcanic Ashes






- Airport Elevation : 70 ft
- IATA code : LEI


LEAM - Almeria

CURRENT METAR :
  • 311700Z 24021G34KT CAVOK 26/19 Q1007

EXPIRED METARs :
  • 311630Z 24026G36KT CAVOK 27/17 Q1007
  • 311600Z 24027G38KT CAVOK 28/18 Q1007
  • 311530Z 24030G41KT CAVOK 27/18 Q1007
  • 311500Z 24029KT CAVOK 28/18 Q1007

TAF TAF LEAM
Valid from the 31 at 18:00 until the 01 at 18:00 UTC


311700Z 3118/0118 22022KT CAVOK TX28/0112Z TN22/0106Z
BECMG 3119/3121 23006KT
BECMG 0105/0107 07010KT
BECMG 0111/0113 17008KT



MET'MAP, your aeronautical weather chart ! - Copyright ORBIFLY December 2007 - Disclaimer

ORBIFLY MET'MAP TEAM :

Programming & Development : Alexandra Zaïnal
Concept & original design : Baudouin d'Aumeries
Assistance for programming : Marc-Olivier Méhu
Technical & hardware support : Manuel Goepfert

Contact : metmap@orbifly.com




SOURCES & CREDITS :

   NOAA